Terminal Aerodrome Forecast
Issued by NWS Twin Cities, MN

Home | Current Version | Previous Version | Graphics & Text | Print | Product List | Glossary On
Versions: 1 2 3 4 5 6 7 8 9 10 11 12 13 14 15 16 17 18 19 20 21 22 23 24 25
000
FTUS43 KMPX 221100
TAFMSP
TAF
KMSP 221130Z 2212/2318 30014G21KT P6SM SCT020 BKN250
      TEMPO 2215/2217 BKN020
     FM221700 32017G24KT P6SM SCT030 SCT250
     FM230000 35007KT P6SM FEW250
     FM231000 01004KT P6SM SKC=

USA.gov is the U.S. government's official web portal to all federal, state and local government web resources and services.